createdAt,value
2022-12-09T00:00:38.696Z,63.10
2022-12-09T00:03:05.575Z,63.30
2022-12-09T00:05:32.306Z,63.20
2022-12-09T00:07:58.951Z,62.40
2022-12-09T00:10:25.891Z,61.30
2022-12-09T00:12:54.061Z,60.90
2022-12-09T00:15:20.571Z,61.60
2022-12-09T00:17:47.132Z,61.40
2022-12-09T00:20:14.123Z,62.00
2022-12-09T00:22:40.833Z,62.90
2022-12-09T00:25:07.820Z,61.70
2022-12-09T00:27:34.397Z,62.80
2022-12-09T00:30:01.025Z,62.80
2022-12-09T00:32:27.718Z,62.80
2022-12-09T00:34:54.495Z,62.80
2022-12-09T00:37:21.061Z,62.70
2022-12-09T00:39:47.881Z,62.70
2022-12-09T00:42:14.426Z,62.60
2022-12-09T00:44:41.100Z,62.60
2022-12-09T00:47:08.161Z,62.60
2022-12-09T00:49:34.780Z,62.50
2022-12-09T00:52:01.643Z,62.50
2022-12-09T00:54:28.391Z,62.40
2022-12-09T00:56:57.087Z,62.50
2022-12-09T00:59:23.714Z,64.50
2022-12-09T01:01:50.289Z,66.30
2022-12-09T01:04:17.349Z,66.60
2022-12-09T01:06:44.181Z,68.20
2022-12-09T01:09:10.821Z,70.80
2022-12-09T01:11:37.662Z,70.30
2022-12-09T01:14:04.697Z,69.30
2022-12-09T01:16:32.768Z,67.90
2022-12-09T01:19:00.467Z,67.30
2022-12-09T01:21:28.035Z,67.10
2022-12-09T01:23:54.734Z,67.00
2022-12-09T01:26:21.548Z,66.80
2022-12-09T01:28:52.428Z,66.40
2022-12-09T01:31:20.969Z,66.40
2022-12-09T01:33:47.651Z,68.00
2022-12-09T01:36:15.694Z,66.80
2022-12-09T01:38:42.501Z,66.20
2022-12-09T01:41:09.102Z,66.10
2022-12-09T01:43:35.757Z,65.60
2022-12-09T01:46:02.530Z,64.70
2022-12-09T01:48:35.007Z,64.90
2022-12-09T01:51:03.325Z,65.20
2022-12-09T01:53:35.373Z,65.20
2022-12-09T01:56:04.336Z,64.50
2022-12-09T01:58:31.473Z,64.70
2022-12-09T02:00:58.004Z,63.60
2022-12-09T02:03:24.926Z,64.40
2022-12-09T02:05:51.762Z,65.20
2022-12-09T02:08:19.024Z,65.60
2022-12-09T02:10:52.839Z,65.90
2022-12-09T02:13:25.132Z,66.00
2022-12-09T02:15:57.160Z,66.00
2022-12-09T02:18:26.959Z,69.40
2022-12-09T02:20:53.541Z,70.10
2022-12-09T02:23:24.465Z,70.00
2022-12-09T02:25:51.469Z,70.00
2022-12-09T02:28:38.430Z,71.20
2022-12-09T02:31:15.535Z,71.40
2022-12-09T02:34:01.266Z,71.60
2022-12-09T02:36:30.442Z,71.40
2022-12-09T02:38:58.323Z,72.50
2022-12-09T02:41:27.373Z,72.10
2022-12-09T02:43:57.565Z,70.00
2022-12-09T02:46:24.496Z,70.00
2022-12-09T02:48:52.982Z,69.90
2022-12-09T02:51:20.621Z,69.30
2022-12-09T02:53:50.558Z,67.80
2022-12-09T02:56:17.950Z,66.70
2022-12-09T02:58:44.539Z,66.70
2022-12-09T03:01:24.872Z,66.40
2022-12-09T03:03:53.321Z,65.60
2022-12-09T03:06:20.180Z,66.40
2022-12-09T03:08:50.770Z,67.90
2022-12-09T03:11:18.214Z,68.20
2022-12-09T03:13:51.175Z,69.70
2022-12-09T03:16:25.591Z,69.70
2022-12-09T03:18:55.656Z,71.40
2022-12-09T03:21:23.893Z,73.70
2022-12-09T03:23:51.965Z,75.30
2022-12-09T03:26:18.905Z,77.50
2022-12-09T03:28:48.584Z,78.00
2022-12-09T03:31:17.466Z,78.00
2022-12-09T03:33:46.364Z,78.10
2022-12-09T03:36:14.171Z,78.00
2022-12-09T03:38:41.660Z,78.10
2022-12-09T03:41:21.273Z,78.00
2022-12-09T03:43:53.088Z,78.10
2022-12-09T03:46:20.651Z,78.10
2022-12-09T03:48:48.028Z,78.90
2022-12-09T03:51:26.197Z,80.10
2022-12-09T03:53:58.810Z,81.20
2022-12-09T03:56:30.652Z,82.20
2022-12-09T03:58:58.046Z,82.60
2022-12-09T04:01:26.096Z,83.90
2022-12-09T04:03:54.375Z,84.80
2022-12-09T04:06:21.108Z,85.10
2022-12-09T04:08:47.988Z,85.30
2022-12-09T04:11:14.620Z,85.90
2022-12-09T04:13:41.260Z,84.60
2022-12-09T04:16:07.937Z,84.40
2022-12-09T04:18:34.626Z,84.30
2022-12-09T04:21:04.924Z,84.40
2022-12-09T04:23:31.678Z,84.90
2022-12-09T04:25:58.523Z,85.10
2022-12-09T04:28:25.360Z,86.00
2022-12-09T04:30:52.180Z,86.50
2022-12-09T04:33:19.669Z,86.60
2022-12-09T04:35:46.329Z,86.00
2022-12-09T04:38:12.858Z,86.50
2022-12-09T04:40:39.685Z,86.10
2022-12-09T04:43:06.267Z,85.90
2022-12-09T04:45:33.152Z,85.70
2022-12-09T04:48:00.360Z,86.60
2022-12-09T04:50:27.962Z,85.60
2022-12-09T04:52:54.763Z,85.10
2022-12-09T04:55:21.368Z,85.60
2022-12-09T04:57:48.098Z,85.60
2022-12-09T05:00:15.424Z,86.30
2022-12-09T05:02:42.440Z,85.50
2022-12-09T05:05:09.783Z,85.50
2022-12-09T05:07:36.662Z,85.40
2022-12-09T05:10:03.984Z,85.40
2022-12-09T05:12:32.325Z,85.00
2022-12-09T05:14:59.029Z,85.20
2022-12-09T05:17:25.690Z,84.00
2022-12-09T05:19:52.663Z,83.90
2022-12-09T05:22:19.512Z,82.90
2022-12-09T05:24:47.564Z,82.90
2022-12-09T05:27:14.899Z,82.60
2022-12-09T05:29:41.877Z,81.80
2022-12-09T05:32:08.609Z,82.30
2022-12-09T05:34:35.757Z,81.70
2022-12-09T05:37:02.492Z,79.80
2022-12-09T05:39:29.241Z,78.90
2022-12-09T05:41:55.966Z,78.90
2022-12-09T05:44:22.704Z,78.90
2022-12-09T05:46:49.371Z,78.90
2022-12-09T05:49:16.201Z,78.70
2022-12-09T05:51:43.225Z,78.50
2022-12-09T05:54:10.385Z,78.20
2022-12-09T05:56:38.085Z,77.00
2022-12-09T05:59:07.237Z,76.90
2022-12-09T06:01:34.166Z,77.20
2022-12-09T06:04:01.274Z,78.10
2022-12-09T06:06:31.633Z,77.80
2022-12-09T06:08:59.882Z,78.90
2022-12-09T06:11:27.094Z,78.90
2022-12-09T06:13:54.740Z,80.50
2022-12-09T06:16:22.497Z,81.10
2022-12-09T06:18:49.396Z,82.00
2022-12-09T06:21:17.668Z,82.80
2022-12-09T06:23:44.426Z,82.90
2022-12-09T06:26:19.166Z,82.90
2022-12-09T06:28:45.774Z,83.90
2022-12-09T06:31:12.686Z,84.70
2022-12-09T06:33:57.672Z,83.70
2022-12-09T06:36:26.304Z,84.60
2022-12-09T06:38:53.386Z,84.50
2022-12-09T06:41:20.139Z,83.70
2022-12-09T06:43:47.573Z,84.30
2022-12-09T06:46:15.617Z,85.00
2022-12-09T06:48:42.663Z,86.00
2022-12-09T06:51:09.678Z,85.70
2022-12-09T06:53:37.346Z,85.60
2022-12-09T06:56:11.873Z,85.20
2022-12-09T06:58:40.694Z,85.50
2022-12-09T07:01:13.707Z,85.70
2022-12-09T07:03:41.141Z,85.20
2022-12-09T07:06:16.516Z,84.80
2022-12-09T07:08:43.483Z,84.20
2022-12-09T07:11:10.370Z,83.40
2022-12-09T07:13:37.429Z,82.60
2022-12-09T07:16:04.539Z,82.00
2022-12-09T07:18:31.484Z,81.50
2022-12-09T07:20:58.611Z,81.20
2022-12-09T07:23:25.453Z,80.00
2022-12-09T07:25:56.434Z,80.00
2022-12-09T07:28:23.362Z,79.50
2022-12-09T07:30:50.133Z,79.60
2022-12-09T07:33:17.323Z,79.80
2022-12-09T07:35:44.024Z,79.70
2022-12-09T07:38:10.957Z,79.70
2022-12-09T07:40:40.543Z,79.70
2022-12-09T07:43:07.558Z,79.70
2022-12-09T07:45:34.947Z,79.70
2022-12-09T07:48:01.745Z,79.90
2022-12-09T07:50:29.136Z,78.20
2022-12-09T07:52:56.130Z,78.10
2022-12-09T07:55:22.880Z,78.20
2022-12-09T07:57:49.794Z,77.30
2022-12-09T08:00:17.133Z,77.10
2022-12-09T08:02:44.275Z,76.80
2022-12-09T08:05:12.098Z,76.50
2022-12-09T08:07:44.141Z,75.20
2022-12-09T08:10:11.556Z,75.20
2022-12-09T08:12:38.267Z,75.90
2022-12-09T08:15:06.538Z,75.90
2022-12-09T08:17:33.653Z,76.50
2022-12-09T08:20:00.640Z,76.30
2022-12-09T08:22:27.814Z,76.30
2022-12-09T08:24:55.189Z,76.10
2022-12-09T08:27:21.938Z,76.00
2022-12-09T08:29:48.837Z,76.20
2022-12-09T08:32:17.173Z,76.10
2022-12-09T08:34:44.284Z,76.00
2022-12-09T08:37:11.002Z,74.50
2022-12-09T08:39:37.616Z,73.30
2022-12-09T08:42:04.347Z,72.40
2022-12-09T08:44:31.200Z,70.30
2022-12-09T08:46:57.933Z,70.00
2022-12-09T08:49:25.120Z,69.80
2022-12-09T08:51:52.833Z,69.70
2022-12-09T08:54:19.917Z,68.60
2022-12-09T08:56:47.640Z,68.30
2022-12-09T08:59:15.265Z,65.90
2022-12-09T09:01:42.282Z,64.40
2022-12-09T09:04:14.537Z,64.10
2022-12-09T09:06:42.449Z,62.10
2022-12-09T09:09:10.870Z,59.10
2022-12-09T09:11:38.463Z,57.00
2022-12-09T09:14:06.809Z,55.50
2022-12-09T09:16:34.058Z,51.90
2022-12-09T09:19:03.645Z,51.90
2022-12-09T09:21:30.576Z,47.50
2022-12-09T09:23:58.786Z,47.90
2022-12-09T09:26:28.165Z,45.50
2022-12-09T09:28:55.769Z,44.70
2022-12-09T09:31:23.412Z,42.90
2022-12-09T09:33:50.967Z,38.40
2022-12-09T09:36:20.777Z,39.00
2022-12-09T09:38:48.423Z,37.40
2022-12-09T09:41:33.533Z,34.60
2022-12-09T09:44:02.031Z,28.00
2022-12-09T09:46:40.883Z,27.60
2022-12-09T09:49:14.690Z,26.00
2022-12-09T09:51:41.518Z,24.20
2022-12-09T09:54:12.437Z,25.50
2022-12-09T09:56:43.831Z,25.80
2022-12-09T09:59:11.186Z,26.90
2022-12-09T10:01:38.215Z,28.90
2022-12-09T10:04:16.615Z,25.60
2022-12-09T10:06:46.728Z,30.70
2022-12-09T10:09:16.421Z,31.70
2022-12-09T10:11:54.914Z,32.10
2022-12-09T10:14:44.613Z,30.90
2022-12-09T10:17:24.061Z,30.40
2022-12-09T10:19:52.780Z,28.50
2022-12-09T10:22:24.710Z,28.50
2022-12-09T10:24:53.482Z,26.30
2022-12-09T10:27:20.523Z,24.30
2022-12-09T10:29:49.953Z,17.30
2022-12-09T10:32:18.893Z,17.00
2022-12-09T10:34:47.548Z,13.90
2022-12-09T10:37:28.490Z,7.20
2022-12-09T10:40:04.981Z,4.40
2022-12-09T10:42:52.987Z,1.00
2022-12-09T10:45:20.325Z,1.00
2022-12-09T10:47:51.557Z,1.00
2022-12-09T10:50:34.943Z,3.10
2022-12-09T10:53:14.319Z,4.20
2022-12-09T10:55:42.742Z,3.90
2022-12-09T10:58:29.729Z,4.50
2022-12-09T11:01:04.498Z,7.30
2022-12-09T11:03:50.744Z,5.90
2022-12-09T11:06:20.689Z,6.20
2022-12-09T11:08:53.503Z,8.50
2022-12-09T11:11:20.826Z,6.80
2022-12-09T11:13:47.583Z,5.40
2022-12-09T11:16:14.278Z,7.00
2022-12-09T11:18:44.306Z,4.40
2022-12-09T11:21:31.738Z,6.40
2022-12-09T11:24:03.267Z,6.30
2022-12-09T11:26:35.985Z,6.00
2022-12-09T11:29:05.352Z,5.80
2022-12-09T11:31:34.226Z,8.10
2022-12-09T11:34:04.450Z,8.00
2022-12-09T11:36:35.334Z,8.10
2022-12-09T11:39:18.449Z,6.50
2022-12-09T11:42:12.930Z,8.10
2022-12-09T11:44:42.880Z,2.30
2022-12-09T11:47:10.951Z,1.00
2022-12-09T11:49:45.372Z,1.00
2022-12-09T11:52:17.985Z,1.00
2022-12-09T11:54:53.835Z,1.00
2022-12-09T11:57:33.635Z,1.00
2022-12-09T12:00:02.930Z,1.00
2022-12-09T12:02:42.227Z,1.00
2022-12-09T12:05:21.640Z,1.00
2022-12-09T12:07:57.973Z,1.00
2022-12-09T12:10:29.692Z,1.00
2022-12-09T12:13:14.992Z,1.00
2022-12-09T12:15:44.585Z,1.00
2022-12-09T12:18:15.562Z,1.00
2022-12-09T12:21:15.683Z,1.00
2022-12-09T12:24:01.086Z,1.00
2022-12-09T12:26:39.824Z,1.00
2022-12-09T12:29:32.523Z,1.00
2022-12-09T12:32:14.872Z,1.00
2022-12-09T12:34:41.357Z,1.00
2022-12-09T12:37:25.557Z,18.90
2022-12-09T12:39:53.824Z,1.00
2022-12-09T12:42:20.366Z,1.00
2022-12-09T12:45:19.875Z,1.00
2022-12-09T12:47:57.624Z,1.00
2022-12-09T12:50:43.213Z,1.00
2022-12-09T12:53:18.696Z,1.00
2022-12-09T12:55:54.383Z,33.50
2022-12-09T12:58:20.877Z,31.10
2022-12-09T13:00:47.392Z,1.00
2022-12-09T13:03:13.991Z,1.00
2022-12-09T13:05:43.405Z,1.00
2022-12-09T13:08:28.587Z,1.00
2022-12-09T13:10:57.124Z,1.00
2022-12-09T13:13:43.713Z,1.00
2022-12-09T13:16:19.186Z,1.00
2022-12-09T13:18:47.209Z,1.00
2022-12-09T13:21:14.233Z,1.00
2022-12-09T13:23:40.743Z,1.00
2022-12-09T13:26:26.869Z,1.00
2022-12-09T13:29:12.731Z,1.00
2022-12-09T13:31:43.501Z,1.00
2022-12-09T13:34:15.835Z,1.00
2022-12-09T13:36:45.544Z,1.00
2022-12-09T13:39:12.951Z,1.00
2022-12-09T13:41:59.722Z,1.00
2022-12-09T13:44:30.695Z,1.00
2022-12-09T13:47:13.284Z,1.00
2022-12-09T13:49:39.923Z,1.00
2022-12-09T13:52:06.458Z,1.00
2022-12-09T13:54:33.718Z,1.00
2022-12-09T13:57:06.174Z,1.00
2022-12-09T13:59:48.656Z,1.00
2022-12-09T14:02:24.788Z,1.00
2022-12-09T14:05:17.372Z,1.00
2022-12-09T14:07:48.768Z,1.00
2022-12-09T14:10:34.214Z,1.00
2022-12-09T14:13:02.382Z,1.00
2022-12-09T14:15:28.948Z,1.00
2022-12-09T14:18:00.186Z,1.00
2022-12-09T14:20:31.166Z,1.90
2022-12-09T14:23:11.196Z,2.30
2022-12-09T14:25:37.686Z,2.30
2022-12-09T14:28:10.398Z,4.10
2022-12-09T14:30:46.074Z,4.40
2022-12-09T14:33:22.109Z,6.40
2022-12-09T14:35:50.374Z,7.00
2022-12-09T14:38:25.085Z,7.00
2022-12-09T14:40:54.372Z,7.80
2022-12-09T14:43:39.855Z,8.30
2022-12-09T14:46:30.172Z,10.30
2022-12-09T14:48:56.883Z,11.30
2022-12-09T14:51:30.439Z,11.50
2022-12-09T14:53:58.841Z,12.10
2022-12-09T14:56:25.932Z,13.60
2022-12-09T14:58:55.050Z,13.90
2022-12-09T15:01:21.626Z,14.80
2022-12-09T15:03:52.645Z,14.80
2022-12-09T15:06:19.815Z,16.10
2022-12-09T15:08:46.968Z,14.20
2022-12-09T15:11:15.109Z,14.70
2022-12-09T15:13:43.753Z,16.00
2022-12-09T15:16:12.298Z,16.10
2022-12-09T15:18:40.089Z,17.90
2022-12-09T15:21:07.034Z,18.60
2022-12-09T15:23:34.443Z,18.20
2022-12-09T15:26:03.283Z,17.30
2022-12-09T15:28:31.054Z,18.30
2022-12-09T15:30:58.849Z,17.00
2022-12-09T15:33:25.947Z,17.50
2022-12-09T15:35:56.076Z,18.30
2022-12-09T15:38:23.971Z,19.00
2022-12-09T15:41:09.080Z,20.40
2022-12-09T15:43:36.334Z,19.10
2022-12-09T15:46:03.245Z,19.80
2022-12-09T15:48:33.275Z,20.10
2022-12-09T15:51:02.436Z,20.70
2022-12-09T15:53:38.272Z,21.80
2022-12-09T15:56:19.443Z,23.10
2022-12-09T15:58:49.223Z,22.00
2022-12-09T16:01:23.788Z,23.90
2022-12-09T16:03:51.376Z,20.10
2022-12-09T16:06:23.220Z,19.90
2022-12-09T16:08:49.723Z,20.80
2022-12-09T16:11:34.076Z,22.10
2022-12-09T16:14:00.858Z,21.90
2022-12-09T16:16:33.621Z,22.10
2022-12-09T16:19:00.194Z,22.80
2022-12-09T16:21:28.835Z,22.10
2022-12-09T16:23:56.527Z,22.10
2022-12-09T16:26:30.256Z,22.30
2022-12-09T16:28:57.973Z,21.90
2022-12-09T16:31:24.792Z,24.40
2022-12-09T16:33:51.509Z,24.40
2022-12-09T16:36:20.185Z,24.40
2022-12-09T16:39:05.329Z,24.40
2022-12-09T16:41:51.889Z,24.40
2022-12-09T16:44:20.066Z,24.40
2022-12-09T16:46:46.821Z,24.30
2022-12-09T16:49:13.470Z,25.50
2022-12-09T16:51:40.116Z,26.30
2022-12-09T16:54:18.088Z,26.60
2022-12-09T16:56:46.877Z,27.50
2022-12-09T16:59:13.473Z,27.20
2022-12-09T17:01:41.434Z,28.00
2022-12-09T17:04:15.231Z,28.60
2022-12-09T17:06:42.156Z,28.60
2022-12-09T17:09:09.743Z,28.40
2022-12-09T17:11:36.307Z,28.60
2022-12-09T17:14:03.108Z,28.70
2022-12-09T17:16:29.744Z,29.00
2022-12-09T17:18:56.640Z,29.60
2022-12-09T17:21:23.172Z,30.00
2022-12-09T17:23:49.694Z,33.50
2022-12-09T17:26:17.360Z,34.10
2022-12-09T17:28:44.190Z,33.50
2022-12-09T17:31:12.307Z,34.70
2022-12-09T17:33:38.889Z,35.00
2022-12-09T17:36:06.053Z,35.50
2022-12-09T17:38:32.747Z,35.80
2022-12-09T17:41:03.559Z,36.90
2022-12-09T17:43:30.098Z,37.70
2022-12-09T17:45:58.915Z,39.50
2022-12-09T17:48:25.495Z,40.50
2022-12-09T17:50:52.020Z,40.60
2022-12-09T17:53:18.553Z,41.70
2022-12-09T17:55:45.578Z,43.50
2022-12-09T17:58:12.131Z,43.80
2022-12-09T18:00:39.631Z,43.80
2022-12-09T18:03:06.489Z,45.20
2022-12-09T18:05:37.048Z,46.40
2022-12-09T18:08:03.970Z,46.50
2022-12-09T18:10:30.625Z,46.90
2022-12-09T18:12:57.203Z,47.20
2022-12-09T18:15:23.922Z,48.30
2022-12-09T18:17:50.475Z,49.40
2022-12-09T18:20:17.191Z,50.30
2022-12-09T18:22:43.890Z,50.30
2022-12-09T18:25:10.401Z,49.60
2022-12-09T18:27:37.073Z,50.30
2022-12-09T18:30:03.940Z,50.30
2022-12-09T18:32:35.837Z,50.90
2022-12-09T18:35:02.761Z,50.90
2022-12-09T18:37:30.426Z,51.60
2022-12-09T18:39:57.030Z,53.80
2022-12-09T18:42:23.541Z,53.80
2022-12-09T18:44:50.110Z,53.80
2022-12-09T18:47:16.889Z,54.80
2022-12-09T18:49:43.453Z,56.90
2022-12-09T18:52:09.944Z,57.20
2022-12-09T18:54:36.595Z,58.70
2022-12-09T18:57:03.780Z,58.80
2022-12-09T18:59:31.109Z,58.40
2022-12-09T19:01:57.896Z,58.70
2022-12-09T19:04:25.863Z,59.00
2022-12-09T19:06:53.579Z,57.30
2022-12-09T19:09:24.707Z,56.30
2022-12-09T19:11:51.941Z,56.70
2022-12-09T19:14:19.997Z,59.20
2022-12-09T19:16:46.967Z,59.30
2022-12-09T19:19:14.903Z,59.20
2022-12-09T19:21:41.657Z,59.40
2022-12-09T19:24:11.287Z,58.90
2022-12-09T19:26:37.841Z,58.50
2022-12-09T19:29:06.211Z,58.90
2022-12-09T19:31:43.673Z,57.60
2022-12-09T19:34:14.691Z,57.60
2022-12-09T19:36:41.274Z,57.10
2022-12-09T19:39:08.423Z,56.60
2022-12-09T19:41:35.479Z,56.30
2022-12-09T19:44:03.946Z,55.80
2022-12-09T19:46:30.898Z,55.50
2022-12-09T19:48:57.957Z,56.00
2022-12-09T19:51:25.101Z,56.10
2022-12-09T19:53:55.166Z,56.30
2022-12-09T19:56:21.753Z,56.80
2022-12-09T19:58:48.755Z,56.60
2022-12-09T20:01:23.221Z,56.90
2022-12-09T20:03:51.614Z,57.00
2022-12-09T20:06:19.501Z,57.20
2022-12-09T20:08:46.397Z,56.60
2022-12-09T20:11:15.390Z,58.00
2022-12-09T20:13:42.114Z,57.80
2022-12-09T20:16:10.218Z,57.90
2022-12-09T20:18:37.200Z,58.20
2022-12-09T20:21:05.072Z,58.70
2022-12-09T20:23:31.664Z,59.10
2022-12-09T20:26:08.622Z,58.60
2022-12-09T20:28:35.943Z,59.00
2022-12-09T20:31:03.895Z,61.20
2022-12-09T20:33:30.446Z,62.30
2022-12-09T20:35:58.822Z,62.10
2022-12-09T20:38:25.374Z,60.90
2022-12-09T20:40:51.930Z,62.30
2022-12-09T20:43:18.484Z,62.20
2022-12-09T20:45:44.992Z,62.30
2022-12-09T20:48:11.600Z,62.20
2022-12-09T20:50:39.008Z,62.10
2022-12-09T20:53:05.634Z,62.10
2022-12-09T20:55:32.127Z,62.10
2022-12-09T20:57:58.640Z,62.20
2022-12-09T21:00:25.156Z,62.00
2022-12-09T21:02:51.789Z,63.30
2022-12-09T21:05:18.291Z,64.00
2022-12-09T21:07:44.971Z,63.60
2022-12-09T21:10:11.617Z,62.10
2022-12-09T21:12:38.175Z,62.00
2022-12-09T21:15:05.193Z,62.00
2022-12-09T21:17:31.712Z,62.20
2022-12-09T21:19:58.212Z,63.50
2022-12-09T21:22:24.840Z,65.60
2022-12-09T21:24:51.374Z,68.10
2022-12-09T21:27:17.964Z,70.50
2022-12-09T21:29:44.996Z,73.30
2022-12-09T21:32:11.691Z,74.00
2022-12-09T21:34:38.224Z,74.70
2022-12-09T21:37:04.816Z,74.00
2022-12-09T21:39:31.493Z,74.00
2022-12-09T21:41:58.247Z,74.70
2022-12-09T21:44:25.509Z,74.70
2022-12-09T21:46:52.116Z,74.90
2022-12-09T21:49:18.809Z,76.20
2022-12-09T21:51:45.879Z,78.80
2022-12-09T21:54:12.778Z,78.80
2022-12-09T21:56:39.291Z,78.90
2022-12-09T21:59:06.822Z,78.90
2022-12-09T22:01:34.701Z,78.90
2022-12-09T22:04:03.535Z,79.00
2022-12-09T22:06:30.523Z,79.50
2022-12-09T22:09:00.593Z,79.00
2022-12-09T22:11:28.591Z,78.50
2022-12-09T22:13:58.980Z,76.90
2022-12-09T22:16:27.119Z,76.80
2022-12-09T22:18:54.525Z,75.40
2022-12-09T22:21:25.271Z,76.00
2022-12-09T22:23:53.497Z,75.10
2022-12-09T22:26:20.449Z,75.70
2022-12-09T22:28:47.351Z,75.90
2022-12-09T22:31:15.525Z,76.50
2022-12-09T22:33:42.271Z,76.90
2022-12-09T22:36:09.825Z,76.70
2022-12-09T22:38:37.060Z,77.00
2022-12-09T22:41:04.832Z,77.20
2022-12-09T22:43:37.757Z,76.30
2022-12-09T22:46:05.969Z,75.60
2022-12-09T22:48:32.576Z,75.20
2022-12-09T22:51:03.955Z,74.40
2022-12-09T22:53:30.482Z,74.80
2022-12-09T22:55:57.273Z,73.90
2022-12-09T22:58:23.783Z,73.90
2022-12-09T23:00:50.313Z,73.40
2022-12-09T23:03:17.465Z,72.90
2022-12-09T23:05:44.120Z,73.70
2022-12-09T23:08:10.731Z,74.00
2022-12-09T23:10:37.347Z,74.00
2022-12-09T23:13:04.033Z,73.40
2022-12-09T23:15:30.638Z,72.60
2022-12-09T23:17:57.234Z,73.10
2022-12-09T23:20:23.773Z,72.80
2022-12-09T23:22:50.369Z,72.30
2022-12-09T23:25:17.243Z,71.30
2022-12-09T23:27:44.446Z,71.20
2022-12-09T23:30:11.851Z,71.30
2022-12-09T23:32:38.502Z,71.80
2022-12-09T23:35:07.593Z,72.30
2022-12-09T23:37:34.316Z,72.70
2022-12-09T23:40:00.824Z,73.10
2022-12-09T23:42:27.333Z,72.90
2022-12-09T23:44:53.872Z,71.60
2022-12-09T23:47:21.090Z,71.20
2022-12-09T23:49:47.630Z,71.20
2022-12-09T23:52:14.240Z,71.20
2022-12-09T23:54:40.841Z,71.20
2022-12-09T23:57:07.421Z,71.10
2022-12-09T23:59:34.011Z,71.10
